createdAt,value
2019-02-19T00:02:27.055Z,96246.80
2019-02-19T00:05:17.586Z,96246.62
2019-02-19T00:08:07.044Z,96243.11
2019-02-19T00:10:56.957Z,96237.59
2019-02-19T00:13:46.326Z,96233.58
2019-02-19T00:16:36.151Z,96236.54
2019-02-19T00:19:25.403Z,96235.78
2019-02-19T00:22:14.838Z,96223.78
2019-02-19T00:25:04.217Z,96231.05
2019-02-19T00:27:53.711Z,96225.56
2019-02-19T00:30:43.400Z,96221.36
2019-02-19T00:33:33.034Z,96229.42
2019-02-19T00:36:22.225Z,96230.76
2019-02-19T00:39:12.477Z,96228.09
2019-02-19T00:42:02.039Z,96225.91
2019-02-19T00:44:52.059Z,96227.14
2019-02-19T00:47:41.329Z,96230.22
2019-02-19T00:50:30.628Z,96233.50
2019-02-19T00:53:20.693Z,96225.52
2019-02-19T00:56:10.357Z,96231.66
2019-02-19T00:58:59.912Z,96232.66
2019-02-19T01:01:49.713Z,96237.69
2019-02-19T01:04:39.989Z,96235.27
2019-02-19T01:07:29.801Z,96241.02
2019-02-19T01:10:19.417Z,96234.70
2019-02-19T01:13:11.774Z,96235.95
2019-02-19T01:16:01.107Z,96228.55
2019-02-19T01:18:50.455Z,96223.92
2019-02-19T01:21:40.423Z,96222.55
2019-02-19T01:24:29.795Z,96226.70
2019-02-19T01:27:19.546Z,96228.47
2019-02-19T01:30:11.484Z,96221.69
2019-02-19T01:33:01.227Z,96222.03
2019-02-19T01:35:50.497Z,96218.31
2019-02-19T01:38:40.291Z,96217.12
2019-02-19T01:41:30.202Z,96215.16
2019-02-19T01:44:19.751Z,96211.65
2019-02-19T01:47:17.154Z,96213.55
2019-02-19T01:50:07.461Z,96214.42
2019-02-19T01:52:56.581Z,96216.66
2019-02-19T01:55:46.229Z,96208.46
2019-02-19T01:58:35.993Z,96212.18
2019-02-19T02:01:25.242Z,96211.72
2019-02-19T02:04:16.262Z,96201.81
2019-02-19T02:07:05.999Z,96204.61
2019-02-19T02:09:55.416Z,96199.09
2019-02-19T02:12:44.645Z,96198.53
2019-02-19T02:15:42.298Z,96191.92
2019-02-19T02:18:26.018Z,96197.09
2019-02-19T02:21:15.792Z,96189.45
2019-02-19T02:24:08.060Z,96190.87
2019-02-19T02:26:57.614Z,96193.03
2019-02-19T02:29:46.988Z,96198.29
2019-02-19T02:32:36.839Z,96190.20
2019-02-19T02:35:25.886Z,96189.64
2019-02-19T02:38:15.313Z,96195.02
2019-02-19T02:41:04.550Z,96187.50
2019-02-19T02:43:54.260Z,96188.38
2019-02-19T02:46:43.603Z,96187.17
2019-02-19T02:49:33.089Z,96183.08
2019-02-19T02:52:22.744Z,96184.45
2019-02-19T02:55:12.221Z,96181.48
2019-02-19T02:58:01.472Z,96180.88
2019-02-19T03:00:51.064Z,96187.12
2019-02-19T03:03:41.008Z,96185.95
2019-02-19T03:06:41.666Z,96189.92
2019-02-19T03:09:31.055Z,96187.84
2019-02-19T03:12:20.505Z,96188.24
2019-02-19T03:15:10.966Z,96186.20
2019-02-19T03:18:00.214Z,96187.97
2019-02-19T03:20:49.844Z,96188.11
2019-02-19T03:23:39.457Z,96193.52
2019-02-19T03:26:29.069Z,96195.80
2019-02-19T03:29:18.470Z,96195.41
2019-02-19T03:32:08.406Z,96196.42
2019-02-19T03:34:57.537Z,96200.83
2019-02-19T03:37:47.623Z,96202.62
2019-02-19T03:40:37.091Z,96206.34
2019-02-19T03:43:26.206Z,96206.41
2019-02-19T03:46:15.443Z,96209.75
2019-02-19T03:49:06.720Z,96210.45
2019-02-19T03:51:56.322Z,96210.85
2019-02-19T03:54:45.588Z,96211.75
2019-02-19T03:57:35.137Z,96219.38
2019-02-19T04:00:24.556Z,96219.09
2019-02-19T04:03:16.839Z,96219.48
2019-02-19T04:06:06.050Z,96219.28
2019-02-19T04:08:55.433Z,96218.33
2019-02-19T04:11:44.850Z,96219.25
2019-02-19T04:14:34.282Z,96221.66
2019-02-19T04:17:23.698Z,96227.74
2019-02-19T04:20:13.867Z,96227.34
2019-02-19T04:23:03.150Z,96235.87
2019-02-19T04:25:52.266Z,96232.14
2019-02-19T04:28:41.642Z,96233.98
2019-02-19T04:31:31.825Z,96229.22
2019-02-19T04:34:21.556Z,96231.13
2019-02-19T04:37:10.834Z,96229.38
2019-02-19T04:40:00.665Z,96230.36
2019-02-19T04:42:50.059Z,96226.70
2019-02-19T04:45:39.925Z,96237.95
2019-02-19T04:48:29.609Z,96233.38
2019-02-19T04:51:18.723Z,96241.59
2019-02-19T04:54:10.829Z,96238.76
2019-02-19T04:57:00.740Z,96243.25
2019-02-19T05:00:01.735Z,96235.28
2019-02-19T05:02:51.644Z,96243.73
2019-02-19T05:05:41.415Z,96236.76
2019-02-19T05:08:31.377Z,96237.09
2019-02-19T05:11:20.833Z,96239.06
2019-02-19T05:14:10.305Z,96242.84
2019-02-19T05:16:59.563Z,96242.30
2019-02-19T05:19:49.685Z,96242.84
2019-02-19T05:22:39.183Z,96249.31
2019-02-19T05:25:28.870Z,96246.14
2019-02-19T05:28:18.532Z,96252.13
2019-02-19T05:31:07.773Z,96250.63
2019-02-19T05:33:57.790Z,96256.44
2019-02-19T05:36:47.102Z,96258.56
2019-02-19T05:39:36.899Z,96264.56
2019-02-19T05:42:26.192Z,96270.72
2019-02-19T05:45:16.022Z,96272.41
2019-02-19T05:48:05.504Z,96265.00
2019-02-19T05:50:54.936Z,96268.59
2019-02-19T05:53:44.957Z,96265.89
2019-02-19T05:56:34.723Z,96273.45
2019-02-19T05:59:24.331Z,96275.06
2019-02-19T06:02:14.272Z,96284.83
2019-02-19T06:05:05.751Z,96285.45
2019-02-19T06:07:54.652Z,96294.61
2019-02-19T06:10:44.427Z,96287.91
2019-02-19T06:13:34.350Z,96296.86
2019-02-19T06:16:23.588Z,96293.41
2019-02-19T06:19:13.356Z,96292.20
2019-02-19T06:22:02.595Z,96299.48
2019-02-19T06:24:52.482Z,96298.72
2019-02-19T06:27:41.943Z,96301.78
2019-02-19T06:30:31.442Z,96301.90
2019-02-19T06:33:21.044Z,96304.94
2019-02-19T06:36:10.305Z,96301.52
2019-02-19T06:39:00.397Z,96312.00
2019-02-19T06:41:50.125Z,96311.28
2019-02-19T06:44:39.345Z,96314.45
2019-02-19T06:47:28.781Z,96307.98
2019-02-19T06:50:18.053Z,96313.95
2019-02-19T06:53:07.579Z,96320.26
2019-02-19T06:55:57.319Z,96324.15
2019-02-19T06:58:46.702Z,96336.23
2019-02-19T07:01:53.703Z,96335.33
2019-02-19T07:04:48.302Z,96335.05
2019-02-19T07:07:38.063Z,96335.12
2019-02-19T07:10:27.284Z,96336.14
2019-02-19T07:13:16.734Z,96347.34
2019-02-19T07:16:06.748Z,96340.78
2019-02-19T07:18:55.931Z,96337.98
2019-02-19T07:21:45.141Z,96351.00
2019-02-19T07:24:35.052Z,96346.57
2019-02-19T07:27:24.433Z,96343.92
2019-02-19T07:30:14.460Z,96344.73
2019-02-19T07:33:03.618Z,96349.62
2019-02-19T07:35:53.389Z,96351.19
2019-02-19T07:38:42.848Z,96344.72
2019-02-19T07:41:34.220Z,96347.73
2019-02-19T07:44:23.760Z,96341.58
2019-02-19T07:47:13.105Z,96347.27
2019-02-19T07:50:13.642Z,96342.48
2019-02-19T07:53:03.641Z,96349.58
2019-02-19T07:55:52.935Z,96346.84
2019-02-19T07:58:42.741Z,96342.41
2019-02-19T08:01:32.374Z,96346.74
2019-02-19T08:04:21.707Z,96350.43
2019-02-19T08:07:11.877Z,96346.47
2019-02-19T08:10:01.883Z,96346.71
2019-02-19T08:12:51.080Z,96347.19
2019-02-19T08:15:40.800Z,96344.70
2019-02-19T08:18:30.709Z,96343.64
2019-02-19T08:21:20.932Z,96345.67
2019-02-19T08:24:10.262Z,96344.38
2019-02-19T08:26:59.627Z,96346.14
2019-02-19T08:29:49.042Z,96345.88
2019-02-19T08:32:39.128Z,96353.47
2019-02-19T08:35:28.249Z,96345.00
2019-02-19T08:38:17.923Z,96344.17
2019-02-19T08:41:07.190Z,96353.82
2019-02-19T08:43:56.797Z,96352.51
2019-02-19T08:46:46.116Z,96349.68
2019-02-19T08:49:35.780Z,96350.17
2019-02-19T08:52:25.177Z,96345.67
2019-02-19T08:55:15.100Z,96355.13
2019-02-19T08:58:04.489Z,96349.40
2019-02-19T09:00:54.192Z,96359.45
2019-02-19T09:03:43.797Z,96371.05
2019-02-19T09:06:33.011Z,96370.00
2019-02-19T09:09:22.455Z,96368.36
2019-02-19T09:12:11.691Z,96368.66
2019-02-19T09:15:00.899Z,96374.27
2019-02-19T09:17:52.202Z,96367.94
2019-02-19T09:20:43.275Z,96368.08
2019-02-19T09:23:32.843Z,96365.65
2019-02-19T09:26:22.405Z,96373.63
2019-02-19T09:29:12.450Z,96378.34
2019-02-19T09:32:01.849Z,96369.20
2019-02-19T09:34:52.667Z,96371.06
2019-02-19T09:37:42.927Z,96371.91
2019-02-19T09:40:33.531Z,96380.78
2019-02-19T09:43:23.070Z,96369.52
2019-02-19T09:46:12.701Z,96379.66
2019-02-19T09:49:02.148Z,96375.92
2019-02-19T09:51:51.571Z,96371.28
2019-02-19T09:54:41.296Z,96376.47
2019-02-19T09:57:32.610Z,96370.55
2019-02-19T10:00:21.117Z,96375.37
2019-02-19T10:03:11.085Z,96373.36
2019-02-19T10:06:01.084Z,96367.25
2019-02-19T10:08:50.261Z,96385.08
2019-02-19T10:11:43.259Z,96381.27
2019-02-19T10:14:32.373Z,96383.02
2019-02-19T10:17:21.605Z,96381.23
2019-02-19T10:20:10.819Z,96394.20
2019-02-19T10:23:00.461Z,96386.94
2019-02-19T10:25:50.065Z,96390.78
2019-02-19T10:28:39.671Z,96383.91
2019-02-19T10:31:29.555Z,96390.44
2019-02-19T10:34:19.364Z,96396.28
2019-02-19T10:37:08.805Z,96384.05
2019-02-19T10:39:58.312Z,96378.48
2019-02-19T10:42:47.506Z,96378.59
2019-02-19T10:45:37.338Z,96371.81
2019-02-19T10:48:26.630Z,96367.56
2019-02-19T10:51:16.006Z,96360.44
2019-02-19T10:54:07.951Z,96363.55
2019-02-19T10:56:57.788Z,96344.09
2019-02-19T10:59:47.219Z,96343.77
2019-02-19T11:02:36.960Z,96344.65
2019-02-19T11:05:26.444Z,96337.66
2019-02-19T11:08:16.082Z,96345.89
2019-02-19T11:11:05.695Z,96342.64
2019-02-19T11:13:54.776Z,96340.89
2019-02-19T11:16:44.493Z,96342.13
2019-02-19T11:19:33.740Z,96333.67
2019-02-19T11:22:23.261Z,96328.97
2019-02-19T11:25:13.293Z,96347.20
2019-02-19T11:28:03.318Z,96336.33
2019-02-19T11:30:52.901Z,96332.23
2019-02-19T11:33:42.321Z,96320.56
2019-02-19T11:36:32.639Z,96324.70
2019-02-19T11:42:46.823Z,96299.34
2019-02-19T11:45:36.324Z,96306.67
2019-02-19T11:48:26.155Z,96298.53
2019-02-19T11:51:15.655Z,96297.47
2019-02-19T11:54:07.993Z,96290.20
2019-02-19T11:56:57.346Z,96302.22
2019-02-19T11:59:46.802Z,96299.63
2019-02-19T12:02:35.992Z,96291.63
2019-02-19T12:05:26.162Z,96286.05
2019-02-19T12:08:15.615Z,96286.92
2019-02-19T12:11:05.245Z,96286.03
2019-02-19T12:13:54.526Z,96285.48
2019-02-19T12:16:43.810Z,96282.53
2019-02-19T12:19:33.376Z,96277.97
2019-02-19T12:22:22.509Z,96284.98
2019-02-19T12:25:12.410Z,96278.47
2019-02-19T12:28:01.699Z,96266.80
2019-02-19T12:30:51.304Z,96274.59
2019-02-19T12:33:40.991Z,96276.67
2019-02-19T12:36:30.610Z,96265.06
2019-02-19T12:39:19.781Z,96273.75
2019-02-19T12:42:09.033Z,96268.95
2019-02-19T12:44:58.713Z,96269.74
2019-02-19T12:47:48.159Z,96266.55
2019-02-19T12:50:37.591Z,96268.88
2019-02-19T12:53:26.904Z,96267.28
2019-02-19T12:56:16.678Z,96274.75
2019-02-19T12:59:08.404Z,96264.33
2019-02-19T13:01:58.553Z,96261.78
2019-02-19T13:04:47.743Z,96267.09
2019-02-19T13:07:37.489Z,96271.75
2019-02-19T13:10:27.278Z,96270.38
2019-02-19T13:13:17.396Z,96265.52
2019-02-19T13:16:07.730Z,96270.88
2019-02-19T13:19:03.435Z,96277.75
2019-02-19T13:21:50.128Z,96275.91
2019-02-19T13:24:39.358Z,96283.67
2019-02-19T13:27:28.772Z,96281.37
2019-02-19T13:30:17.937Z,96275.00
2019-02-19T13:33:07.200Z,96284.30
2019-02-19T13:35:56.784Z,96279.70
2019-02-19T13:38:47.561Z,96280.17
2019-02-19T13:41:39.281Z,96281.62
2019-02-19T13:44:29.048Z,96276.20
2019-02-19T13:47:18.502Z,96275.98
2019-02-19T13:50:10.792Z,96280.87
2019-02-19T13:53:22.893Z,96275.03
2019-02-19T13:56:12.758Z,96273.50
2019-02-19T13:59:02.329Z,96262.74
2019-02-19T14:01:51.825Z,96267.57
2019-02-19T14:04:40.958Z,96267.12
2019-02-19T14:07:30.722Z,96266.52
2019-02-19T14:10:20.612Z,96278.36
2019-02-19T14:13:10.482Z,96274.80
2019-02-19T14:16:20.020Z,96271.95
2019-02-19T14:19:28.197Z,96279.02
2019-02-19T14:22:51.963Z,96274.19
2019-02-19T14:25:58.804Z,96270.20
2019-02-19T14:29:19.298Z,96276.48
2019-02-19T14:32:45.724Z,96266.06
2019-02-19T14:36:11.877Z,96274.61
2019-02-19T14:39:20.134Z,96280.13
2019-02-19T14:42:27.170Z,96268.81
2019-02-19T14:45:34.194Z,96279.05
2019-02-19T14:48:55.061Z,96262.29
2019-02-19T14:52:02.245Z,96261.16
2019-02-19T14:55:14.688Z,96255.48
2019-02-19T14:58:25.928Z,96251.23
2019-02-19T15:01:37.440Z,96249.66
2019-02-19T15:04:49.081Z,96260.32
2019-02-19T15:08:00.315Z,96260.24
2019-02-19T15:11:14.231Z,96252.91
2019-02-19T15:14:22.135Z,96250.14
2019-02-19T15:17:25.947Z,96246.36
2019-02-19T15:20:32.644Z,96249.76
2019-02-19T15:23:42.015Z,96253.15
2019-02-19T15:26:54.634Z,96243.91
2019-02-19T15:30:09.296Z,96244.31
2019-02-19T15:33:30.026Z,96184.11
2019-02-19T15:36:46.906Z,96252.44
2019-02-19T15:39:55.194Z,96251.02
2019-02-19T15:43:06.653Z,96253.84
2019-02-19T15:46:16.782Z,96258.54
2019-02-19T15:49:47.741Z,96251.22
2019-02-19T15:52:56.089Z,96252.75
2019-02-19T15:56:04.214Z,96256.14
2019-02-19T15:59:15.869Z,96257.36
2019-02-19T16:02:22.645Z,96262.02
2019-02-19T16:05:30.348Z,96266.43
2019-02-19T16:08:37.609Z,96263.05
2019-02-19T16:11:48.756Z,96263.90
2019-02-19T16:14:51.492Z,96278.47
2019-02-19T16:18:09.522Z,96274.70
2019-02-19T16:21:23.867Z,96280.59
2019-02-19T16:24:35.483Z,96272.44
2019-02-19T16:27:49.364Z,96273.64
2019-02-19T16:30:56.909Z,96268.34
2019-02-19T16:34:08.510Z,96275.92
2019-02-19T16:37:06.961Z,96274.75
2019-02-19T16:40:04.515Z,96284.64
2019-02-19T16:43:11.180Z,96278.72
2019-02-19T16:46:18.650Z,96279.97
2019-02-19T16:49:30.262Z,96283.20
2019-02-19T16:52:30.895Z,96289.80
2019-02-19T16:55:34.836Z,96293.88
2019-02-19T16:58:35.287Z,96294.06
2019-02-19T17:01:43.327Z,96296.03
2019-02-19T17:04:51.557Z,96294.44
2019-02-19T17:08:02.749Z,96296.93
2019-02-19T17:11:20.433Z,96305.16
2019-02-19T17:14:32.964Z,96301.70
2019-02-19T17:17:34.672Z,96300.72
2019-02-19T17:20:58.190Z,96297.94
2019-02-19T17:24:06.581Z,96300.59
2019-02-19T17:27:13.387Z,96295.48
2019-02-19T17:30:22.551Z,96292.25
2019-02-19T17:33:20.082Z,96298.48
2019-02-19T17:36:20.259Z,96306.20
2019-02-19T17:39:27.421Z,96292.31
2019-02-19T17:42:31.345Z,96298.56
2019-02-19T17:45:38.440Z,96298.40
2019-02-19T17:48:56.315Z,96301.46
2019-02-19T17:52:10.362Z,96296.67
2019-02-19T17:58:53.652Z,96298.30
2019-02-19T18:01:55.420Z,96290.48
2019-02-19T18:04:51.782Z,96302.42
2019-02-19T18:07:58.464Z,96095.97
2019-02-19T18:11:04.522Z,96297.70
2019-02-19T18:14:12.107Z,96292.81
2019-02-19T18:17:19.167Z,96289.77
2019-02-19T18:20:08.764Z,96288.45
2019-02-19T18:22:58.265Z,96289.72
2019-02-19T18:25:47.974Z,96283.05
2019-02-19T18:28:37.239Z,96287.02
2019-02-19T18:31:27.116Z,96292.74
2019-02-19T18:34:16.410Z,96296.20
2019-02-19T18:37:05.575Z,96300.59
2019-02-19T18:39:55.006Z,96299.94
2019-02-19T18:42:44.683Z,96292.42
2019-02-19T18:45:34.237Z,96292.98
2019-02-19T18:48:24.106Z,96295.72
2019-02-19T18:51:13.726Z,96295.80
2019-02-19T18:54:03.228Z,96291.24
2019-02-19T18:56:53.426Z,96302.84
2019-02-19T18:59:42.505Z,96307.52
2019-02-19T19:02:31.942Z,96299.18
2019-02-19T19:05:21.773Z,96304.39
2019-02-19T19:08:11.593Z,96306.28
2019-02-19T19:11:01.218Z,96313.27
2019-02-19T19:13:50.870Z,96314.80
2019-02-19T19:16:40.292Z,96313.30
2019-02-19T19:19:29.796Z,96306.25
2019-02-19T19:22:19.434Z,96311.67
2019-02-19T19:25:08.855Z,96312.75
2019-02-19T19:27:58.479Z,96305.94
2019-02-19T19:30:47.718Z,96312.31
2019-02-19T19:33:37.393Z,96314.62
2019-02-19T19:36:26.563Z,96312.67
2019-02-19T19:39:16.285Z,96307.14
2019-02-19T19:42:06.142Z,96312.52
2019-02-19T19:44:56.081Z,96311.68
2019-02-19T19:47:45.608Z,96309.12
2019-02-19T19:50:35.961Z,96306.19
2019-02-19T19:53:25.439Z,96311.77
2019-02-19T19:56:15.231Z,96311.20
2019-02-19T19:59:06.249Z,96313.98
2019-02-19T20:01:55.457Z,96315.16
2019-02-19T20:04:45.355Z,96314.97
2019-02-19T20:07:35.271Z,96313.79
2019-02-19T20:10:24.925Z,96314.77
2019-02-19T20:13:15.091Z,96322.50
2019-02-19T20:16:05.225Z,96318.85
2019-02-19T20:18:54.992Z,96326.64
2019-02-19T20:21:45.798Z,96325.08
2019-02-19T20:24:35.446Z,96324.48
2019-02-19T20:27:25.267Z,96327.75
2019-02-19T20:30:15.213Z,96332.03
2019-02-19T20:33:05.353Z,96334.36
2019-02-19T20:35:55.218Z,96325.65
2019-02-19T20:38:44.789Z,96325.84
2019-02-19T20:41:35.770Z,96320.55
2019-02-19T20:44:25.666Z,96320.11
2019-02-19T20:47:15.822Z,96323.02
2019-02-19T20:50:05.779Z,96318.19
2019-02-19T20:52:55.389Z,96320.19
2019-02-19T20:55:45.094Z,96325.00
2019-02-19T20:58:34.475Z,96316.02
2019-02-19T21:01:28.262Z,96329.48
2019-02-19T21:04:18.131Z,96334.03
2019-02-19T21:07:08.345Z,96334.84
2019-02-19T21:09:58.350Z,96337.03
2019-02-19T21:12:48.268Z,96336.20
2019-02-19T21:15:38.401Z,96338.31
2019-02-19T21:18:27.774Z,96336.75
2019-02-19T21:21:17.125Z,96336.02
2019-02-19T21:24:09.743Z,96336.54
2019-02-19T21:27:01.518Z,96341.50
2019-02-19T21:29:50.994Z,96334.40
2019-02-19T21:32:40.928Z,96343.66
2019-02-19T21:35:30.803Z,96337.59
2019-02-19T21:38:21.811Z,96346.06
2019-02-19T21:41:11.697Z,96351.34
2019-02-19T21:44:01.948Z,96347.03
2019-02-19T21:46:51.720Z,96344.58
2019-02-19T21:49:41.734Z,96348.95
2019-02-19T21:52:31.199Z,96353.67
2019-02-19T21:55:21.361Z,96351.04
2019-02-19T21:58:10.540Z,96342.05
2019-02-19T22:01:00.432Z,96340.03
2019-02-19T22:03:49.702Z,96344.11
2019-02-19T22:06:39.285Z,96342.85
2019-02-19T22:09:28.444Z,96344.92
2019-02-19T22:12:18.060Z,96351.81
2019-02-19T22:15:07.498Z,96354.62
2019-02-19T22:17:56.675Z,96356.00
2019-02-19T22:20:51.097Z,96366.87
2019-02-19T22:23:40.345Z,96363.59
2019-02-19T22:26:29.860Z,96364.92
2019-02-19T22:29:19.802Z,96358.22
2019-02-19T22:32:09.941Z,96362.48
2019-02-19T22:34:59.573Z,96354.40
2019-02-19T22:37:49.160Z,96364.36
2019-02-19T22:40:38.499Z,96368.08
2019-02-19T22:47:03.847Z,96367.76
2019-02-19T22:49:53.344Z,96373.48
2019-02-19T22:52:42.573Z,96374.02
2019-02-19T22:55:34.919Z,96374.99
2019-02-19T22:58:24.154Z,96378.30
2019-02-19T23:01:26.613Z,96384.45
2019-02-19T23:04:16.082Z,96388.03
2019-02-19T23:07:06.090Z,96391.48
2019-02-19T23:09:55.513Z,96389.55
2019-02-19T23:12:45.210Z,96378.67
2019-02-19T23:15:34.625Z,96383.13
2019-02-19T23:18:27.527Z,96392.16
2019-02-19T23:21:17.755Z,96383.99
2019-02-19T23:24:10.181Z,96397.56
2019-02-19T23:26:59.542Z,96398.45
2019-02-19T23:29:49.243Z,96391.47
2019-02-19T23:32:38.741Z,96399.03
2019-02-19T23:35:33.993Z,96407.68
2019-02-19T23:38:23.206Z,96402.79
2019-02-19T23:41:12.656Z,96409.47
2019-02-19T23:44:02.582Z,96410.73
2019-02-19T23:46:51.997Z,96403.73
2019-02-19T23:49:41.589Z,96401.25
2019-02-19T23:52:31.107Z,96400.18
2019-02-19T23:55:20.563Z,96407.84
2019-02-19T23:58:10.225Z,96415.30
